Time;durP1;ratioP1;P1;durP2;ratioP2;P2;SDS_P1;SDS_P2;PMS_P1;PMS_P2;Temp;Humidity;BMP_temperature;BMP_pressure;BME280_temperature;BME280_humidity;BME280_pressure;Samples;Min_cycle;Max_cycle;Signal;HPM_P1;HPM_P2
2022/09/30 00:01:10;;;;;;;11.90;7.00;;;9.80;73.30;;;;;;5116802;28;20031;-71
2022/09/30 00:03:35;;;;;;;12.02;6.28;;;9.80;73.10;;;;;;5116701;28;20020;-72
2022/09/30 00:06:05;;;;;;;8.02;5.38;;;9.80;74.00;;;;;;5116560;28;20032;-71
2022/09/30 00:08:30;;;;;;;8.38;4.90;;;9.80;72.90;;;;;;5116521;28;20055;-71
2022/09/30 00:11:09;;;;;;;10.13;5.25;;;9.70;73.20;;;;;;5098521;28;20028;-71
2022/09/30 00:13:37;;;;;;;8.40;4.70;;;9.60;73.70;;;;;;5116615;28;20069;-71
2022/09/30 00:16:04;;;;;;;7.45;5.40;;;9.50;74.10;;;;;;5116369;28;20020;-71
2022/09/30 00:18:29;;;;;;;11.60;6.18;;;9.50;74.40;;;;;;5116354;28;20035;-71
2022/09/30 00:20:55;;;;;;;8.25;5.28;;;9.50;74.30;;;;;;5116441;28;20079;-71
2022/09/30 00:23:22;;;;;;;9.00;5.63;;;9.50;74.10;;;;;;5116176;28;20028;-71
2022/09/30 00:25:49;;;;;;;7.57;4.88;;;9.60;73.80;;;;;;5116210;28;20024;-71
2022/09/30 00:28:15;;;;;;;6.95;4.57;;;9.60;73.10;;;;;;5116061;28;20042;-72
2022/09/30 00:30:42;;;;;;;6.50;4.53;;;9.50;73.50;;;;;;5098093;28;20031;-71
2022/09/30 00:33:08;;;;;;;7.90;5.28;;;9.50;73.40;;;;;;5116072;28;20083;-71
2022/09/30 00:35:35;;;;;;;10.30;5.15;;;9.40;73.70;;;;;;5116006;28;20498;-71
2022/09/30 00:38:01;;;;;;;9.40;5.88;;;9.30;74.10;;;;;;5115983;28;20103;-71
2022/09/30 00:40:27;;;;;;;9.38;6.07;;;9.40;74.40;;;;;;5115934;28;20028;-71
2022/09/30 00:42:52;;;;;;;10.68;6.30;;;9.30;74.30;;;;;;5115806;28;20051;-71
2022/09/30 00:45:18;;;;;;;12.18;6.97;;;9.30;74.50;;;;;;5115649;28;20056;-71
2022/09/30 00:47:55;;;;;;;9.55;6.53;;;9.30;74.20;;;;;;5115642;28;20042;-71
2022/09/30 00:50:54;;;;;;;11.30;6.22;;;9.40;74.20;;;;;;5115877;28;20020;-71
2022/09/30 00:53:28;;;;;;;22.58;9.77;;;9.40;73.70;;;;;;5082304;28;20033;-71
2022/09/30 00:56:02;;;;;;;44.53;15.25;;;9.40;73.50;;;;;;5115677;28;20077;-71
2022/09/30 00:58:28;;;;;;;29.23;10.75;;;9.40;73.20;;;;;;5115742;28;20024;-71
2022/09/30 01:00:55;;;;;;;38.10;12.13;;;9.40;73.30;;;;;;5115534;28;20067;-71
2022/09/30 01:03:21;;;;;;;43.58;13.68;;;9.30;73.60;;;;;;5115411;28;20024;-71
2022/09/30 01:05:49;;;;;;;30.63;10.85;;;9.20;73.70;;;;;;5115412;28;20048;-71
2022/09/30 01:08:17;;;;;;;33.40;12.73;;;9.20;74.10;;;;;;5115366;28;20021;-71
2022/09/30 01:10:43;;;;;;;23.50;11.98;;;9.30;74.10;;;;;;5115350;28;20024;-72
2022/09/30 01:13:11;;;;;;;27.90;11.18;;;9.20;73.90;;;;;;5115251;28;20028;-71
2022/09/30 01:16:06;;;;;;;22.55;10.50;;;9.20;73.90;;;;;;5115286;28;20099;-71
2022/09/30 01:19:04;;;;;;;17.77;9.18;;;9.30;73.70;;;;;;5115229;28;20027;-71
2022/09/30 01:21:54;;;;;;;19.00;8.40;;;9.20;73.60;;;;;;5115278;28;20020;-71
2022/09/30 01:24:27;;;;;;;19.27;8.68;;;9.10;74.00;;;;;;5115051;28;20035;-71
2022/09/30 01:27:09;;;;;;;13.65;7.78;;;9.10;74.10;;;;;;5115190;28;20013;-71
2022/09/30 01:30:13;;;;;;;16.38;8.50;;;9.10;74.00;;;;;;5115020;28;20012;-71
2022/09/30 01:33:16;;;;;;;13.95;7.38;;;9.00;74.00;;;;;;5052922;28;20041;-71
2022/09/30 01:35:49;;;;;;;11.40;7.22;;;9.00;74.30;;;;;;5072568;28;20025;-71
2022/09/30 01:38:35;;;;;;;12.65;7.38;;;9.00;74.20;;;;;;5108303;28;20100;-71
2022/09/30 01:41:10;;;;;;;11.98;6.93;;;9.10;74.10;;;;;;5114781;28;20077;-72
2022/09/30 01:43:54;;;;;;;13.02;6.97;;;9.00;73.80;;;;;;5114692;28;20120;-72
2022/09/30 01:46:36;;;;;;;12.52;7.00;;;8.90;73.90;;;;;;5114502;28;20036;-71
2022/09/30 01:49:37;;;;;;;11.02;6.63;;;8.70;74.30;;;;;;5114580;28;20083;-71
2022/09/30 01:52:06;;;;;;;8.90;6.28;;;8.70;74.90;;;;;;5111319;28;20040;-72
2022/09/30 01:54:54;;;;;;;11.82;6.72;;;8.70;74.90;;;;;;5114515;28;20079;-71
2022/09/30 01:57:22;;;;;;;11.63;7.43;;;8.80;74.70;;;;;;5114636;28;20066;-71
2022/09/30 02:00:06;;;;;;;10.50;6.57;;;8.70;74.80;;;;;;5113792;28;20383;-71
2022/09/30 02:03:00;;;;;;;10.30;6.28;;;8.70;75.20;;;;;;5114317;28;20016;-71
2022/09/30 02:05:39;;;;;;;8.80;6.10;;;8.70;74.90;;;;;;5111134;28;20032;-71
2022/09/30 02:08:28;;;;;;;11.60;6.82;;;8.60;74.60;;;;;;5114443;28;20108;-71
2022/09/30 02:11:01;;;;;;;10.07;6.28;;;8.60;74.80;;;;;;5103163;28;20032;-71
2022/09/30 02:13:49;;;;;;;9.40;6.60;;;8.50;75.00;;;;;;5114197;28;20030;-71
2022/09/30 02:16:22;;;;;;;10.27;6.43;;;8.60;75.30;;;;;;5114286;28;20024;-71
2022/09/30 02:18:52;;;;;;;10.98;6.35;;;8.60;75.10;;;;;;5114126;28;20035;-71
2022/09/30 02:21:26;;;;;;;11.60;6.78;;;8.50;75.00;;;;;;5114000;28;20027;-71
2022/09/30 02:23:59;;;;;;;10.70;6.65;;;8.50;75.20;;;;;;5113967;28;20087;-71
2022/09/30 02:26:30;;;;;;;10.90;6.22;;;8.60;74.80;;;;;;5113991;28;20013;-71
2022/09/30 02:29:14;;;;;;;11.32;6.57;;;8.60;74.70;;;;;;5113881;28;20020;-71
2022/09/30 02:31:43;;;;;;;9.70;6.45;;;8.50;75.00;;;;;;5113889;28;20020;-71
2022/09/30 02:34:27;;;;;;;12.30;6.90;;;8.50;76.00;;;;;;5113801;28;20372;-71
2022/09/30 02:37:08;;;;;;;10.77;6.80;;;8.50;75.10;;;;;;5113953;28;20042;-71
2022/09/30 02:40:27;;;;;;;11.20;6.80;;;8.30;75.60;;;;;;5113797;28;20026;-71
2022/09/30 02:42:52;;;;;;;11.27;7.13;;;8.30;75.80;;;;;;5087902;28;20070;-71
2022/09/30 02:45:22;;;;;;;12.10;7.32;;;8.20;76.10;;;;;;5113488;28;20044;-71
2022/09/30 02:48:10;;;;;;;10.20;6.25;;;8.20;75.90;;;;;;5113709;28;20074;-71
2022/09/30 02:50:57;;;;;;;14.25;7.32;;;8.30;75.70;;;;;;5113650;28;20021;-71
2022/09/30 02:53:32;;;;;;;10.55;6.63;;;8.40;75.60;;;;;;5113764;28;20088;-71
2022/09/30 02:56:11;;;;;;;10.98;6.18;;;8.40;74.90;;;;;;5113585;28;20091;-71
2022/09/30 02:58:39;;;;;;;9.25;6.88;;;8.30;75.10;;;;;;5113579;28;20020;-71
2022/09/30 03:01:15;;;;;;;10.50;6.20;;;8.30;75.60;;;;;;5113519;28;20032;-71
2022/09/30 03:03:48;;;;;;;11.90;7.40;;;8.20;75.90;;;;;;5113471;28;20073;-71
2022/09/30 03:06:15;;;;;;;12.00;6.32;;;8.30;75.90;;;;;;5113477;28;20046;-71
2022/09/30 03:08:41;;;;;;;12.25;6.75;;;8.20;76.30;;;;;;5113431;28;20020;-71
2022/09/30 03:11:20;;;;;;;9.02;5.95;;;8.30;76.30;;;;;;5114373;28;20028;-71
2022/09/30 03:14:16;;;;;;;9.77;6.30;;;8.30;76.00;;;;;;5117665;28;20054;-71
2022/09/30 03:17:00;;;;;;;10.32;6.35;;;8.40;75.80;;;;;;5117751;28;20092;-71
2022/09/30 03:20:02;;;;;;;11.60;5.95;;;8.30;75.90;;;;;;5117686;28;20038;-71
2022/09/30 03:23:06;;;;;;;9.82;6.30;;;8.30;75.70;;;;;;5117392;28;20032;-71
2022/09/30 03:25:44;;;;;;;9.52;5.88;;;8.20;75.90;;;;;;5117559;28;20020;-71
2022/09/30 03:28:09;;;;;;;10.75;6.20;;;8.20;76.20;;;;;;5117520;28;20028;-71
2022/09/30 03:30:47;;;;;;;9.27;5.78;;;8.20;76.20;;;;;;5117234;28;20017;-71
2022/09/30 03:33:24;;;;;;;8.32;5.25;;;8.30;76.10;;;;;;5117443;28;20031;-71
2022/09/30 03:36:02;;;;;;;10.32;5.95;;;8.20;75.80;;;;;;5117205;28;20035;-72
2022/09/30 03:38:50;;;;;;;14.88;6.68;;;8.10;76.00;;;;;;5099276;28;20024;-71
2022/09/30 03:41:58;;;;;;;10.50;6.53;;;8.20;75.90;;;;;;5117013;28;20032;-71
2022/09/30 03:44:36;;;;;;;11.30;5.95;;;8.10;75.90;;;;;;5054887;28;20053;-71
2022/09/30 03:47:12;;;;;;;11.48;6.85;;;8.00;76.20;;;;;;5054612;28;20053;-71
2022/09/30 03:50:08;;;;;;;13.10;6.65;;;8.10;76.40;;;;;;5095124;28;20028;-71
2022/09/30 03:52:35;;;;;;;8.43;5.68;;;8.20;75.90;;;;;;5104046;28;20036;-71
2022/09/30 03:55:03;;;;;;;9.40;5.78;;;8.10;75.50;;;;;;5116952;28;20137;-72
2022/09/30 03:57:29;;;;;;;8.85;5.68;;;8.00;75.90;;;;;;5116762;28;20080;-71
2022/09/30 03:59:58;;;;;;;9.02;5.50;;;7.90;76.00;;;;;;5116744;28;20047;-71
2022/09/30 04:02:25;;;;;;;7.78;5.13;;;7.90;76.50;;;;;;5116609;28;20024;-71
2022/09/30 04:04:50;;;;;;;10.45;5.57;;;7.90;76.40;;;;;;5116644;28;20103;-71
2022/09/30 04:07:17;;;;;;;7.68;5.25;;;8.00;76.30;;;;;;5116610;28;20028;-71
2022/09/30 04:09:42;;;;;;;7.85;4.82;;;8.00;76.10;;;;;;5116558;28;20023;-72
2022/09/30 04:12:09;;;;;;;8.55;5.63;;;8.00;75.80;;;;;;5116482;28;20554;-71
2022/09/30 04:14:35;;;;;;;8.82;5.65;;;7.90;76.10;;;;;;5116444;28;20024;-71
2022/09/30 04:17:02;;;;;;;10.60;6.45;;;7.90;76.20;;;;;;5116372;28;20029;-71
2022/09/30 04:19:28;;;;;;;9.38;5.70;;;7.90;76.20;;;;;;5098395;28;20025;-72
2022/09/30 04:21:54;;;;;;;9.00;6.18;;;7.90;76.20;;;;;;5115739;28;20027;-71
2022/09/30 04:24:21;;;;;;;9.63;5.88;;;8.00;76.00;;;;;;5116177;28;20080;-71
2022/09/30 04:26:47;;;;;;;10.50;6.07;;;8.00;76.10;;;;;;5116194;28;20032;-71
2022/09/30 04:29:12;;;;;;;9.68;6.40;;;7.90;76.40;;;;;;5116120;28;20026;-72
2022/09/30 04:31:38;;;;;;;10.48;5.68;;;7.80;76.30;;;;;;5116093;28;20021;-71
2022/09/30 04:34:04;;;;;;;10.98;6.20;;;7.80;76.40;;;;;;5116062;28;20054;-71
2022/09/30 04:36:29;;;;;;;6.80;4.80;;;7.80;76.30;;;;;;5116017;28;20039;-71
2022/09/30 04:38:55;;;;;;;12.38;5.72;;;7.80;75.90;;;;;;5116005;28;20053;-71
2022/09/30 04:41:20;;;;;;;12.00;5.72;;;7.70;77.00;;;;;;5115926;28;20024;-72
2022/09/30 04:43:47;;;;;;;7.38;5.35;;;7.60;76.30;;;;;;5115797;28;20115;-72
2022/09/30 04:46:14;;;;;;;8.50;5.07;;;7.60;76.60;;;;;;5115660;28;20044;-71
2022/09/30 04:48:44;;;;;;;10.25;6.28;;;7.60;76.60;;;;;;5115794;28;20107;-71
2022/09/30 04:51:11;;;;;;;10.38;5.97;;;7.50;76.80;;;;;;5115724;28;20026;-71
2022/09/30 04:53:38;;;;;;;13.32;6.50;;;7.60;76.80;;;;;;5115852;28;20044;-71
2022/09/30 04:56:04;;;;;;;9.82;6.15;;;7.70;76.70;;;;;;5115662;28;20031;-71
2022/09/30 04:58:31;;;;;;;8.30;6.00;;;7.60;77.00;;;;;;5115565;28;20028;-71
2022/09/30 05:01:17;;;;;;;11.30;6.80;;;7.70;76.80;;;;;;5115547;28;20028;-71
2022/09/30 05:03:42;;;;;;;10.68;5.80;;;7.80;76.20;;;;;;5115610;28;20028;-71
2022/09/30 05:06:09;;;;;;;10.68;6.30;;;7.70;75.80;;;;;;5115470;28;20027;-71
2022/09/30 05:08:35;;;;;;;9.65;5.85;;;7.60;76.10;;;;;;5115405;28;20102;-71
2022/09/30 05:11:08;;;;;;;7.72;5.43;;;7.60;76.20;;;;;;5115369;28;20486;-71
2022/09/30 05:13:39;;;;;;;11.85;6.28;;;7.60;76.40;;;;;;5115314;28;20020;-71
2022/09/30 05:16:06;;;;;;;10.75;6.80;;;7.60;76.20;;;;;;5115436;28;20024;-71
2022/09/30 05:18:33;;;;;;;10.32;6.40;;;7.50;76.70;;;;;;5115211;28;20035;-72
2022/09/30 05:20:59;;;;;;;10.15;6.60;;;7.40;77.10;;;;;;5115180;28;20384;-71
2022/09/30 05:23:26;;;;;;;10.95;7.10;;;7.40;77.00;;;;;;5115064;28;20052;-72
2022/09/30 05:25:52;;;;;;;11.63;7.32;;;7.40;77.00;;;;;;5115048;28;20026;-71
2022/09/30 05:28:18;;;;;;;9.95;6.22;;;7.40;77.20;;;;;;5115053;28;20028;-71
2022/09/30 05:30:44;;;;;;;10.55;7.10;;;7.40;77.30;;;;;;5114979;28;20031;-71
2022/09/30 05:33:12;;;;;;;11.73;6.88;;;7.40;77.20;;;;;;5114421;28;20028;-72
2022/09/30 05:35:41;;;;;;;13.07;6.82;;;7.50;77.00;;;;;;5114453;28;20024;-71
2022/09/30 05:38:08;;;;;;;9.07;6.47;;;7.50;77.10;;;;;;5114794;28;20031;-71
2022/09/30 05:40:39;;;;;;;10.65;6.30;;;7.50;77.30;;;;;;5114791;28;20024;-71
2022/09/30 05:43:06;;;;;;;12.05;7.13;;;7.40;77.30;;;;;;5114694;28;20032;-71
2022/09/30 05:45:32;;;;;;;11.80;7.22;;;7.40;77.40;;;;;;5114479;28;20040;-71
2022/09/30 05:47:58;;;;;;;12.65;7.05;;;7.40;77.50;;;;;;5114598;28;20028;-71
2022/09/30 05:50:24;;;;;;;11.57;7.30;;;7.30;77.90;;;;;;5114577;28;20029;-71
2022/09/30 05:52:50;;;;;;;10.95;6.82;;;7.40;77.90;;;;;;5114633;28;20071;-71
2022/09/30 05:55:17;;;;;;;11.63;7.32;;;7.50;77.90;;;;;;5114434;28;20084;-71
2022/09/30 05:57:46;;;;;;;12.02;7.30;;;7.50;78.00;;;;;;5096484;28;20023;-72
2022/09/30 06:00:12;;;;;;;14.60;7.32;;;7.50;77.90;;;;;;5114431;28;20049;-72
2022/09/30 06:02:38;;;;;;;17.67;8.02;;;7.50;78.20;;;;;;5114287;28;20031;-72
2022/09/30 06:05:05;;;;;;;12.13;7.28;;;7.50;78.20;;;;;;5114343;28;20016;-72
2022/09/30 06:07:33;;;;;;;12.73;7.72;;;7.50;78.00;;;;;;5114282;28;20020;-72
2022/09/30 06:09:59;;;;;;;13.48;7.40;;;7.50;78.20;;;;;;5114238;28;20012;-72
2022/09/30 06:12:27;;;;;;;11.40;7.40;;;7.50;78.50;;;;;;5114055;28;20028;-71
2022/09/30 06:14:54;;;;;;;11.93;7.47;;;7.60;78.40;;;;;;5114145;28;20016;-72
2022/09/30 06:17:20;;;;;;;13.73;7.07;;;7.70;78.20;;;;;;5114093;28;20024;-72
2022/09/30 06:19:45;;;;;;;11.70;7.57;;;7.70;77.90;;;;;;5114179;28;20039;-72
2022/09/30 06:22:11;;;;;;;11.80;7.63;;;7.80;77.90;;;;;;5113948;28;20036;-72
2022/09/30 06:24:36;;;;;;;9.98;6.80;;;7.80;77.90;;;;;;5113970;28;20028;-71
2022/09/30 06:27:02;;;;;;;12.90;7.75;;;7.70;78.40;;;;;;5113919;28;20111;-72
2022/09/30 06:29:28;;;;;;;16.20;7.65;;;7.70;78.50;;;;;;5113866;28;20028;-72
2022/09/30 06:31:53;;;;;;;13.27;8.05;;;7.60;78.70;;;;;;5113871;28;20024;-72
2022/09/30 06:34:19;;;;;;;11.95;7.50;;;7.60;78.80;;;;;;5113814;28;20043;-71
2022/09/30 06:36:45;;;;;;;13.77;7.72;;;7.60;79.40;;;;;;5113732;28;20032;-72
2022/09/30 06:39:10;;;;;;;13.10;7.60;;;7.70;79.50;;;;;;5113738;28;20055;-72
2022/09/30 06:41:42;;;;;;;12.00;7.30;;;7.80;79.40;;;;;;5113725;28;20028;-72
2022/09/30 06:44:08;;;;;;;13.30;7.97;;;7.90;79.40;;;;;;5113856;28;20032;-72
2022/09/30 06:46:34;;;;;;;12.85;7.75;;;7.90;79.40;;;;;;5113262;28;20048;-72
2022/09/30 06:49:00;;;;;;;15.27;8.82;;;7.90;79.90;;;;;;5113761;28;20375;-72
2022/09/30 06:51:28;;;;;;;16.45;9.32;;;7.90;80.00;;;;;;5113608;28;20028;-72
2022/09/30 06:53:55;;;;;;;17.38;10.00;;;8.00;80.30;;;;;;5113578;28;20028;-72
2022/09/30 06:56:21;;;;;;;21.23;9.95;;;8.00;80.70;;;;;;5113576;28;20020;-72
2022/09/30 06:58:47;;;;;;;18.52;10.55;;;8.00;80.70;;;;;;5113517;28;20024;-72
2022/09/30 07:01:14;;;;;;;20.80;11.13;;;8.20;80.80;;;;;;5113538;28;20024;-72
2022/09/30 07:03:41;;;;;;;18.48;10.75;;;8.20;81.30;;;;;;5113397;28;20020;-72
2022/09/30 07:06:07;;;;;;;17.30;10.98;;;8.30;81.40;;;;;;5113350;28;20024;-72
2022/09/30 07:08:35;;;;;;;22.23;11.68;;;8.40;81.60;;;;;;5113426;28;20028;-72
2022/09/30 07:11:03;;;;;;;21.80;12.18;;;8.40;82.20;;;;;;5113453;28;20027;-72
2022/09/30 07:13:29;;;;;;;20.98;12.70;;;8.50;82.60;;;;;;5113437;28;20024;-72
2022/09/30 07:15:55;;;;;;;24.75;13.75;;;8.50;82.70;;;;;;5113385;28;20032;-72
2022/09/30 07:18:22;;;;;;;25.60;14.18;;;8.60;83.80;;;;;;5113347;28;20020;-72
2022/09/30 07:20:53;;;;;;;24.30;13.88;;;8.70;83.70;;;;;;5113301;28;20020;-72
2022/09/30 07:23:19;;;;;;;24.33;13.57;;;8.70;84.50;;;;;;5113244;28;20032;-72
2022/09/30 07:26:15;;;;;;;28.42;15.50;;;8.80;84.20;;;;;;5113279;28;20379;-72
2022/09/30 07:28:42;;;;;;;26.42;14.98;;;8.90;84.80;;;;;;5110925;28;20033;-72
2022/09/30 07:31:15;;;;;;;29.27;15.88;;;8.90;85.00;;;;;;5113247;28;20027;-72
2022/09/30 07:33:41;;;;;;;22.92;13.65;;;9.00;86.00;;;;;;5113413;28;20079;-72
2022/09/30 07:36:08;;;;;;;30.38;16.55;;;9.10;85.90;;;;;;5113187;28;20044;-72
2022/09/30 07:38:36;;;;;;;28.02;15.52;;;9.20;86.30;;;;;;5113173;28;20040;-72
2022/09/30 07:41:06;;;;;;;28.63;16.13;;;9.20;85.90;;;;;;5113028;28;20055;-72
2022/09/30 07:43:39;;;;;;;31.63;16.58;;;9.30;86.60;;;;;;5113159;28;20043;-71
2022/09/30 07:46:23;;;;;;;28.13;16.77;;;9.30;86.90;;;;;;5113005;28;20048;-72
2022/09/30 07:48:51;;;;;;;28.75;16.00;;;9.40;86.80;;;;;;5113133;28;20027;-72
2022/09/30 07:51:30;;;;;;;30.60;16.60;;;9.50;87.10;;;;;;5113026;28;20024;-72
2022/09/30 07:53:59;;;;;;;30.88;17.20;;;9.50;87.90;;;;;;5113082;28;20084;-72
2022/09/30 07:56:25;;;;;;;35.70;17.58;;;9.70;87.50;;;;;;5113000;28;20024;-72
2022/09/30 07:58:56;;;;;;;39.13;20.35;;;9.80;87.40;;;;;;5116547;28;20024;-72
2022/09/30 08:01:23;;;;;;;34.53;18.20;;;9.90;87.40;;;;;;5116723;28;20091;-72
2022/09/30 08:03:52;;;;;;;38.28;19.42;;;10.00;88.00;;;;;;5116597;28;20024;-72
2022/09/30 08:06:18;;;;;;;36.05;18.92;;;10.10;87.80;;;;;;5116615;28;20031;-72
2022/09/30 08:08:45;;;;;;;34.13;18.45;;;10.20;87.60;;;;;;5116545;28;20020;-72
2022/09/30 08:11:11;;;;;;;35.25;18.48;;;10.30;88.00;;;;;;5116536;28;20024;-72
2022/09/30 08:13:37;;;;;;;38.13;19.30;;;10.40;87.50;;;;;;5116600;28;20027;-72
2022/09/30 08:16:04;;;;;;;32.63;18.90;;;10.50;88.30;;;;;;5116467;28;20024;-72
2022/09/30 08:18:29;;;;;;;39.22;19.15;;;10.60;88.00;;;;;;5116283;28;20026;-72
2022/09/30 08:20:56;;;;;;;35.42;19.77;;;10.70;87.70;;;;;;5116337;28;20059;-72
2022/09/30 08:23:22;;;;;;;34.60;20.05;;;10.70;87.80;;;;;;5116217;28;20028;-72
2022/09/30 08:25:47;;;;;;;39.85;20.35;;;10.80;87.90;;;;;;5116394;28;20047;-72
2022/09/30 08:28:13;;;;;;;39.53;20.50;;;10.90;87.70;;;;;;5116159;28;20382;-72
2022/09/30 08:30:39;;;;;;;35.13;19.85;;;11.00;87.40;;;;;;5116117;28;20405;-72
2022/09/30 08:33:05;;;;;;;42.72;22.52;;;11.10;87.60;;;;;;5116108;28;20035;-72
2022/09/30 08:35:33;;;;;;;39.35;21.15;;;11.20;87.70;;;;;;5116062;28;20087;-72
2022/09/30 08:37:59;;;;;;;42.22;21.15;;;11.30;87.20;;;;;;5116000;28;20084;-72
2022/09/30 08:40:30;;;;;;;39.90;21.33;;;11.40;87.20;;;;;;5115982;28;20016;-72
2022/09/30 08:42:59;;;;;;;41.25;21.02;;;11.50;87.60;;;;;;5115846;28;20029;-72
2022/09/30 08:46:04;;;;;;;40.83;22.45;;;11.60;87.40;;;;;;5115858;28;20036;-72
2022/09/30 08:48:32;;;;;;;36.72;20.83;;;11.70;86.70;;;;;;5112578;28;20034;-72
2022/09/30 08:51:39;;;;;;;39.15;21.90;;;11.70;86.30;;;;;;5115719;28;20024;-72
2022/09/30 08:54:12;;;;;;;41.08;22.88;;;11.80;86.80;;;;;;5111567;28;20036;-72
2022/09/30 08:56:38;;;;;;;40.08;23.35;;;12.00;86.90;;;;;;5115825;28;20024;-72
2022/09/30 08:59:05;;;;;;;40.55;23.25;;;12.10;86.40;;;;;;5115619;28;20071;-72
2022/09/30 09:01:39;;;;;;;41.05;23.02;;;12.20;85.90;;;;;;5115551;28;20024;-72
2022/09/30 09:04:06;;;;;;;39.75;22.50;;;12.40;86.20;;;;;;5115494;28;20028;-72
2022/09/30 09:06:53;;;;;;;40.25;23.58;;;12.50;85.90;;;;;;5115488;28;20028;-72
2022/09/30 09:09:21;;;;;;;39.85;22.38;;;12.60;85.60;;;;;;5115308;28;20016;-72
2022/09/30 09:11:59;;;;;;;39.00;23.17;;;12.70;85.70;;;;;;5115455;28;20028;-72
2022/09/30 09:14:43;;;;;;;36.00;21.17;;;12.80;85.90;;;;;;5115531;28;20027;-72
2022/09/30 09:17:31;;;;;;;37.05;21.58;;;13.00;85.30;;;;;;5115429;28;20028;-72
2022/09/30 09:20:14;;;;;;;37.97;21.45;;;13.00;84.70;;;;;;5115377;28;20024;-72
2022/09/30 09:22:42;;;;;;;32.25;19.30;;;13.20;85.20;;;;;;5115115;28;20035;-72
2022/09/30 09:25:14;;;;;;;31.80;18.95;;;13.30;84.30;;;;;;5115044;28;20039;-72
2022/09/30 09:27:51;;;;;;;31.58;19.40;;;13.40;83.40;;;;;;5097205;28;20012;-72
2022/09/30 09:30:21;;;;;;;32.47;19.15;;;13.50;83.80;;;;;;5114977;28;20050;-72
2022/09/30 09:32:56;;;;;;;23.48;14.55;;;13.60;83.10;;;;;;5115014;28;20027;-72
2022/09/30 09:35:28;;;;;;;33.17;17.00;;;13.70;81.10;;;;;;5114924;28;20034;-72
2022/09/30 09:38:23;;;;;;;30.75;17.92;;;13.80;80.80;;;;;;5114933;28;20035;-72
2022/09/30 09:41:07;;;;;;;28.23;17.25;;;13.90;82.40;;;;;;5114945;28;20059;-72
2022/09/30 09:43:57;;;;;;;21.95;14.13;;;14.00;81.50;;;;;;5114735;28;20050;-72
2022/09/30 09:46:31;;;;;;;21.30;11.98;;;14.20;81.10;;;;;;5114600;28;20040;-72
2022/09/30 09:49:12;;;;;;;19.40;12.57;;;14.20;80.10;;;;;;5114810;28;20057;-72
2022/09/30 09:51:46;;;;;;;20.73;13.32;;;14.20;77.20;;;;;;5114581;28;20038;-72
2022/09/30 09:54:14;;;;;;;21.45;12.43;;;14.30;78.40;;;;;;5114616;28;20050;-72
2022/09/30 09:56:39;;;;;;;18.88;10.45;;;14.50;79.10;;;;;;5114629;28;20021;-72
2022/09/30 09:59:16;;;;;;;15.40;9.90;;;14.50;77.60;;;;;;5114458;28;20059;-72
2022/09/30 10:01:44;;;;;;;18.92;11.27;;;14.70;76.10;;;;;;5114422;28;20028;-72
2022/09/30 10:04:29;;;;;;;17.63;10.70;;;14.80;76.30;;;;;;5114390;28;20028;-72
2022/09/30 10:06:59;;;;;;;20.27;10.88;;;14.80;76.10;;;;;;5114417;28;20060;-72
2022/09/30 10:09:26;;;;;;;20.38;10.95;;;14.80;74.70;;;;;;5114252;28;20057;-72
2022/09/30 10:12:07;;;;;;;19.00;10.90;;;14.80;74.70;;;;;;5114216;28;20395;-72
2022/09/30 10:14:47;;;;;;;19.08;10.43;;;14.90;76.00;;;;;;5114116;28;20028;-72
2022/09/30 10:17:31;;;;;;;18.95;11.48;;;14.90;73.70;;;;;;5114176;28;20043;-72
2022/09/30 10:20:06;;;;;;;16.98;10.48;;;14.90;74.40;;;;;;5113797;28;20026;-72
2022/09/30 10:22:34;;;;;;;18.38;10.93;;;15.00;74.70;;;;;;5113994;28;20406;-72
2022/09/30 10:25:17;;;;;;;19.77;11.88;;;15.10;74.40;;;;;;5113998;28;20027;-72
2022/09/30 10:27:55;;;;;;;19.20;10.95;;;15.20;73.60;;;;;;5114146;28;20016;-72
2022/09/30 10:30:30;;;;;;;20.83;11.88;;;15.30;73.60;;;;;;5113895;28;20072;-72
2022/09/30 10:32:55;;;;;;;19.40;10.63;;;15.40;73.40;;;;;;5113858;28;20028;-72
2022/09/30 10:35:23;;;;;;;17.80;10.98;;;15.40;71.40;;;;;;5113838;28;20024;-72
2022/09/30 10:37:53;;;;;;;19.55;10.02;;;15.30;71.20;;;;;;5113779;28;20084;-72
2022/09/30 10:40:26;;;;;;;16.48;9.38;;;15.40;72.00;;;;;;5113798;28;20073;-72
2022/09/30 10:42:52;;;;;;;18.05;9.60;;;15.60;71.40;;;;;;5113743;28;20022;-72
2022/09/30 10:45:24;;;;;;;14.63;8.23;;;15.60;71.50;;;;;;5113452;28;20047;-73
2022/09/30 10:47:54;;;;;;;13.07;8.10;;;15.70;70.30;;;;;;5113868;28;20028;-72
2022/09/30 10:50:23;;;;;;;14.95;8.85;;;15.80;70.40;;;;;;5113634;28;20016;-72
2022/09/30 10:53:01;;;;;;;17.25;9.98;;;15.70;69.30;;;;;;5113609;28;20028;-72
2022/09/30 10:55:40;;;;;;;18.60;10.20;;;15.80;70.40;;;;;;5113585;28;20024;-72
2022/09/30 10:58:34;;;;;;;15.80;9.70;;;15.90;69.80;;;;;;5113610;28;20024;-72
2022/09/30 11:01:24;;;;;;;16.95;9.93;;;15.90;68.90;;;;;;5113698;28;20032;-72
2022/09/30 11:04:11;;;;;;;16.70;9.32;;;16.00;70.40;;;;;;5113534;28;20044;-72
2022/09/30 11:06:39;;;;;;;19.65;10.68;;;16.00;69.30;;;;;;5113507;28;20059;-72
2022/09/30 11:09:10;;;;;;;21.52;12.18;;;16.00;69.30;;;;;;5113459;28;20021;-72
2022/09/30 11:11:46;;;;;;;19.20;11.20;;;16.20;69.80;;;;;;5113478;28;20017;-72
2022/09/30 11:14:22;;;;;;;19.60;10.77;;;16.20;69.20;;;;;;5113461;28;20028;-72
2022/09/30 11:17:16;;;;;;;20.52;12.77;;;16.30;68.40;;;;;;5113438;28;20111;-72
2022/09/30 11:20:27;;;;;;;19.38;11.23;;;16.40;68.30;;;;;;5113401;28;20028;-72
2022/09/30 11:23:18;;;;;;;18.25;10.35;;;16.30;68.80;;;;;;5031339;28;20037;-73
2022/09/30 11:25:52;;;;;;;18.08;10.13;;;16.30;69.40;;;;;;5031510;28;20032;-72
2022/09/30 11:28:47;;;;;;;13.13;8.93;;;16.40;68.10;;;;;;5088224;28;20096;-72
2022/09/30 11:31:31;;;;;;;15.45;9.20;;;16.50;68.00;;;;;;5113333;28;20028;-72
2022/09/30 11:34:18;;;;;;;10.73;7.20;;;16.70;67.00;;;;;;5117263;28;20016;-72
2022/09/30 11:37:07;;;;;;;14.50;8.07;;;16.60;66.70;;;;;;5117255;28;20024;-72
2022/09/30 11:39:45;;;;;;;12.50;7.55;;;16.70;67.90;;;;;;5117258;28;20023;-72
2022/09/30 11:42:32;;;;;;;12.00;7.75;;;16.70;67.50;;;;;;5117119;28;20020;-72
2022/09/30 11:45:24;;;;;;;13.05;6.68;;;16.70;67.40;;;;;;5117235;28;20430;-72
2022/09/30 11:48:02;;;;;;;9.35;6.18;;;16.90;68.30;;;;;;5117082;28;20032;-72
2022/09/30 11:50:43;;;;;;;8.90;5.40;;;16.90;67.10;;;;;;5116982;28;20031;-72
2022/09/30 11:53:27;;;;;;;8.38;5.20;;;16.70;66.30;;;;;;5116956;28;20027;-72
2022/09/30 11:55:59;;;;;;;9.35;5.45;;;16.60;65.80;;;;;;5116823;28;20027;-72
2022/09/30 11:58:33;;;;;;;6.78;5.25;;;16.50;66.40;;;;;;5116912;28;20039;-72
2022/09/30 12:01:15;;;;;;;10.65;5.65;;;16.40;67.60;;;;;;5116770;28;20095;-72
2022/09/30 12:03:53;;;;;;;9.32;5.78;;;16.30;66.80;;;;;;5116681;28;20024;-72
2022/09/30 12:06:39;;;;;;;7.82;4.95;;;16.30;67.30;;;;;;5116720;28;20028;-72
2022/09/30 12:09:25;;;;;;;7.30;4.32;;;16.40;67.10;;;;;;5085217;28;20170;-72
2022/09/30 12:12:00;;;;;;;7.95;4.10;;;16.40;65.80;;;;;;5116746;28;20016;-72
2022/09/30 12:14:41;;;;;;;5.40;3.63;;;16.40;66.00;;;;;;5116572;28;20031;-72
2022/09/30 12:17:33;;;;;;;6.15;3.28;;;16.50;66.90;;;;;;5116652;28;20032;-72
2022/09/30 12:20:13;;;;;;;5.32;3.10;;;16.60;65.50;;;;;;5116401;28;20024;-72
2022/09/30 12:22:42;;;;;;;3.25;2.22;;;16.70;65.90;;;;;;5116318;28;20020;-72
2022/09/30 12:25:35;;;;;;;4.50;2.58;;;16.90;65.50;;;;;;5098445;28;20021;-72
2022/09/30 12:30:15;;;;;;;;;;;17.00;64.90;;;;;;5110214;28;20094;-72
2022/09/30 12:30:49;;;;;;;3.03;2.03;;;17.10;62.10;;;;;;5116139;28;19904;-72
2022/09/30 12:33:36;;;;;;;4.13;2.00;;;17.20;63.10;;;;;;5116170;28;20024;-72
2022/09/30 12:36:08;;;;;;;2.10;1.30;;;17.30;62.70;;;;;;5116154;28;20028;-72
2022/09/30 12:38:43;;;;;;;4.05;1.70;;;17.40;61.90;;;;;;5116136;28;20028;-72
2022/09/30 12:41:39;;;;;;;2.58;1.88;;;17.50;62.80;;;;;;5116011;28;20065;-72
2022/09/30 12:44:23;;;;;;;2.97;1.58;;;17.50;61.70;;;;;;5102458;28;20040;-72
2022/09/30 12:47:04;;;;;;;3.33;1.70;;;17.30;61.10;;;;;;5115779;28;20044;-72
2022/09/30 12:49:32;;;;;;;2.28;1.70;;;17.20;62.50;;;;;;5115842;28;20103;-72
2022/09/30 12:52:04;;;;;;;2.97;1.75;;;17.20;62.70;;;;;;5115798;28;20024;-72
2022/09/30 12:54:33;;;;;;;1.77;1.20;;;17.30;62.70;;;;;;5115840;28;20054;-72
2022/09/30 12:57:03;;;;;;;2.70;1.50;;;17.40;62.70;;;;;;5115663;28;20028;-72
2022/09/30 12:59:34;;;;;;;2.30;1.50;;;17.60;61.60;;;;;;5115664;28;20028;-72
2022/09/30 13:02:03;;;;;;;1.73;1.30;;;17.60;60.30;;;;;;5115660;28;20016;-72
2022/09/30 13:04:33;;;;;;;3.17;1.40;;;17.60;61.40;;;;;;5115616;28;20425;-72
2022/09/30 13:06:58;;;;;;;2.88;1.40;;;17.50;60.60;;;;;;5115544;28;20017;-72
2022/09/30 13:09:35;;;;;;;2.85;1.52;;;17.40;61.20;;;;;;5115447;28;20024;-72
2022/09/30 13:12:01;;;;;;;2.53;1.70;;;17.30;61.60;;;;;;5115414;28;20087;-72
2022/09/30 13:14:36;;;;;;;2.22;1.60;;;17.20;62.00;;;;;;5115363;28;20031;-72
2022/09/30 13:17:09;;;;;;;3.90;1.80;;;17.10;61.70;;;;;;5115320;28;20057;-72